sensor_id;sensor_type;location;lat;lon;timestamp;temperature;humidity
23259;DHT22;11798;51.528;7.240;2022-12-07T00:02:18;5.20;99.90
23259;DHT22;11798;51.528;7.240;2022-12-07T00:04:43;5.20;99.90
23259;DHT22;11798;51.528;7.240;2022-12-07T00:07:09;5.20;99.90
23259;DHT22;11798;51.528;7.240;2022-12-07T00:09:34;5.20;99.90
23259;DHT22;11798;51.528;7.240;2022-12-07T00:12:00;5.20;99.90
23259;DHT22;11798;51.528;7.240;2022-12-07T00:14:25;5.20;99.90
23259;DHT22;11798;51.528;7.240;2022-12-07T00:16:51;5.30;99.90
23259;DHT22;11798;51.528;7.240;2022-12-07T00:19:17;5.30;99.90
23259;DHT22;11798;51.528;7.240;2022-12-07T00:21:43;5.30;99.90
23259;DHT22;11798;51.528;7.240;2022-12-07T00:24:10;5.30;99.90
23259;DHT22;11798;51.528;7.240;2022-12-07T00:26:38;5.30;99.90
23259;DHT22;11798;51.528;7.240;2022-12-07T00:29:11;5.30;99.90
23259;DHT22;11798;51.528;7.240;2022-12-07T00:31:38;5.30;99.90
23259;DHT22;11798;51.528;7.240;2022-12-07T00:34:05;5.30;99.90
23259;DHT22;11798;51.528;7.240;2022-12-07T00:36:31;5.30;99.90
23259;DHT22;11798;51.528;7.240;2022-12-07T00:38:58;5.30;99.90
23259;DHT22;11798;51.528;7.240;2022-12-07T00:41:26;5.40;99.90
23259;DHT22;11798;51.528;7.240;2022-12-07T00:43:52;5.30;99.90
23259;DHT22;11798;51.528;7.240;2022-12-07T00:46:19;5.30;99.90
23259;DHT22;11798;51.528;7.240;2022-12-07T00:48:46;5.30;99.90
23259;DHT22;11798;51.528;7.240;2022-12-07T00:51:13;5.30;99.90
23259;DHT22;11798;51.528;7.240;2022-12-07T00:53:39;5.30;99.90
23259;DHT22;11798;51.528;7.240;2022-12-07T00:56:11;5.30;99.90
23259;DHT22;11798;51.528;7.240;2022-12-07T00:58:37;5.40;99.90
23259;DHT22;11798;51.528;7.240;2022-12-07T01:01:04;5.30;99.90
23259;DHT22;11798;51.528;7.240;2022-12-07T01:03:29;5.40;99.90
23259;DHT22;11798;51.528;7.240;2022-12-07T01:05:56;5.40;99.90
23259;DHT22;11798;51.528;7.240;2022-12-07T01:08:23;5.40;99.90
23259;DHT22;11798;51.528;7.240;2022-12-07T01:10:56;5.40;99.90
23259;DHT22;11798;51.528;7.240;2022-12-07T01:13:22;5.30;99.90
23259;DHT22;11798;51.528;7.240;2022-12-07T01:15:48;5.40;99.90
23259;DHT22;11798;51.528;7.240;2022-12-07T01:18:13;5.40;99.90
23259;DHT22;11798;51.528;7.240;2022-12-07T01:20:39;5.40;99.90
23259;DHT22;11798;51.528;7.240;2022-12-07T01:23:04;5.30;99.90
23259;DHT22;11798;51.528;7.240;2022-12-07T01:25:30;5.30;99.90
23259;DHT22;11798;51.528;7.240;2022-12-07T01:27:56;5.30;99.90
23259;DHT22;11798;51.528;7.240;2022-12-07T01:30:22;5.30;99.90
23259;DHT22;11798;51.528;7.240;2022-12-07T01:32:47;5.30;99.90
23259;DHT22;11798;51.528;7.240;2022-12-07T01:35:13;5.40;99.90
23259;DHT22;11798;51.528;7.240;2022-12-07T01:37:39;5.20;99.90
23259;DHT22;11798;51.528;7.240;2022-12-07T01:40:06;5.30;99.90
23259;DHT22;11798;51.528;7.240;2022-12-07T01:42:32;5.30;99.90
23259;DHT22;11798;51.528;7.240;2022-12-07T01:47:47;5.40;99.90
23259;DHT22;11798;51.528;7.240;2022-12-07T01:50:14;5.40;99.90
23259;DHT22;11798;51.528;7.240;2022-12-07T01:52:40;5.40;99.90
23259;DHT22;11798;51.528;7.240;2022-12-07T01:55:10;5.30;99.90
23259;DHT22;11798;51.528;7.240;2022-12-07T01:57:41;5.30;99.90
23259;DHT22;11798;51.528;7.240;2022-12-07T02:00:08;5.40;99.90
23259;DHT22;11798;51.528;7.240;2022-12-07T02:02:40;5.40;99.90
23259;DHT22;11798;51.528;7.240;2022-12-07T02:05:08;5.40;99.90
23259;DHT22;11798;51.528;7.240;2022-12-07T02:07:36;5.50;99.90
23259;DHT22;11798;51.528;7.240;2022-12-07T02:10:16;5.50;99.90
23259;DHT22;11798;51.528;7.240;2022-12-07T02:12:44;5.40;99.90
23259;DHT22;11798;51.528;7.240;2022-12-07T02:15:11;5.30;99.90
23259;DHT22;11798;51.528;7.240;2022-12-07T02:17:49;5.30;99.90
23259;DHT22;11798;51.528;7.240;2022-12-07T02:26:25;5.20;99.90
23259;DHT22;11798;51.528;7.240;2022-12-07T02:29:14;5.10;99.90
23259;DHT22;11798;51.528;7.240;2022-12-07T02:37:01;5.20;99.90
23259;DHT22;11798;51.528;7.240;2022-12-07T02:39:44;5.20;99.90
23259;DHT22;11798;51.528;7.240;2022-12-07T02:42:19;5.20;99.90
23259;DHT22;11798;51.528;7.240;2022-12-07T02:44:48;5.30;99.90
23259;DHT22;11798;51.528;7.240;2022-12-07T02:47:16;5.30;99.90
23259;DHT22;11798;51.528;7.240;2022-12-07T02:49:43;5.20;99.90
23259;DHT22;11798;51.528;7.240;2022-12-07T02:52:09;5.30;99.90
23259;DHT22;11798;51.528;7.240;2022-12-07T02:57:31;5.20;99.90
23259;DHT22;11798;51.528;7.240;2022-12-07T03:02:42;5.10;99.90
23259;DHT22;11798;51.528;7.240;2022-12-07T03:08:06;5.10;99.90
23259;DHT22;11798;51.528;7.240;2022-12-07T03:10:53;5.10;99.90
23259;DHT22;11798;51.528;7.240;2022-12-07T03:16:17;4.90;99.90
23259;DHT22;11798;51.528;7.240;2022-12-07T03:18:53;4.90;99.90
23259;DHT22;11798;51.528;7.240;2022-12-07T03:21:24;4.90;99.90
23259;DHT22;11798;51.528;7.240;2022-12-07T03:23:56;4.90;99.90
23259;DHT22;11798;51.528;7.240;2022-12-07T03:29:12;4.90;99.90
23259;DHT22;11798;51.528;7.240;2022-12-07T03:31:43;4.80;99.90
23259;DHT22;11798;51.528;7.240;2022-12-07T03:37:21;4.80;99.90
23259;DHT22;11798;51.528;7.240;2022-12-07T03:42:25;4.80;99.90
23259;DHT22;11798;51.528;7.240;2022-12-07T03:44:50;4.80;99.90
23259;DHT22;11798;51.528;7.240;2022-12-07T03:47:27;4.70;99.90
23259;DHT22;11798;51.528;7.240;2022-12-07T03:52:50;4.70;99.90
23259;DHT22;11798;51.528;7.240;2022-12-07T03:55:28;4.70;99.90
23259;DHT22;11798;51.528;7.240;2022-12-07T03:57:58;4.60;99.90
23259;DHT22;11798;51.528;7.240;2022-12-07T04:00:25;4.50;99.90
23259;DHT22;11798;51.528;7.240;2022-12-07T04:02:52;4.50;99.90
23259;DHT22;11798;51.528;7.240;2022-12-07T04:05:18;4.40;99.90
23259;DHT22;11798;51.528;7.240;2022-12-07T04:07:44;4.40;99.90
23259;DHT22;11798;51.528;7.240;2022-12-07T04:10:10;4.40;99.90
23259;DHT22;11798;51.528;7.240;2022-12-07T04:12:36;4.40;99.90
23259;DHT22;11798;51.528;7.240;2022-12-07T04:15:03;4.40;99.90
23259;DHT22;11798;51.528;7.240;2022-12-07T04:17:28;4.40;99.90
23259;DHT22;11798;51.528;7.240;2022-12-07T04:19:54;4.30;99.90
23259;DHT22;11798;51.528;7.240;2022-12-07T04:22:20;4.30;99.90
23259;DHT22;11798;51.528;7.240;2022-12-07T04:24:45;4.30;99.90
23259;DHT22;11798;51.528;7.240;2022-12-07T04:27:11;4.40;99.90
23259;DHT22;11798;51.528;7.240;2022-12-07T04:29:37;4.40;99.90
23259;DHT22;11798;51.528;7.240;2022-12-07T04:32:02;4.40;99.90
23259;DHT22;11798;51.528;7.240;2022-12-07T04:34:28;4.40;99.90
23259;DHT22;11798;51.528;7.240;2022-12-07T04:36:54;4.30;99.90
23259;DHT22;11798;51.528;7.240;2022-12-07T04:39:20;4.40;99.90
23259;DHT22;11798;51.528;7.240;2022-12-07T04:41:46;4.40;99.90
23259;DHT22;11798;51.528;7.240;2022-12-07T04:44:13;4.40;99.90
23259;DHT22;11798;51.528;7.240;2022-12-07T04:46:40;4.50;99.90
23259;DHT22;11798;51.528;7.240;2022-12-07T04:49:06;4.40;99.90
23259;DHT22;11798;51.528;7.240;2022-12-07T04:51:32;4.40;99.90
23259;DHT22;11798;51.528;7.240;2022-12-07T04:53:58;4.40;99.90
23259;DHT22;11798;51.528;7.240;2022-12-07T04:56:24;4.40;99.90
23259;DHT22;11798;51.528;7.240;2022-12-07T04:58:52;4.40;99.90
23259;DHT22;11798;51.528;7.240;2022-12-07T05:01:18;4.50;99.90
23259;DHT22;11798;51.528;7.240;2022-12-07T05:03:44;4.40;99.90
23259;DHT22;11798;51.528;7.240;2022-12-07T05:06:10;4.40;99.90
23259;DHT22;11798;51.528;7.240;2022-12-07T05:08:36;4.40;99.90
23259;DHT22;11798;51.528;7.240;2022-12-07T05:11:03;4.40;99.90
23259;DHT22;11798;51.528;7.240;2022-12-07T05:13:29;4.30;99.90
23259;DHT22;11798;51.528;7.240;2022-12-07T05:15:54;4.30;99.90
23259;DHT22;11798;51.528;7.240;2022-12-07T05:18:20;4.30;99.90
23259;DHT22;11798;51.528;7.240;2022-12-07T05:20:46;4.30;99.90
23259;DHT22;11798;51.528;7.240;2022-12-07T05:23:11;4.30;99.90
23259;DHT22;11798;51.528;7.240;2022-12-07T05:25:37;4.20;99.90
23259;DHT22;11798;51.528;7.240;2022-12-07T05:28:04;4.20;99.90
23259;DHT22;11798;51.528;7.240;2022-12-07T05:30:30;4.20;99.90
23259;DHT22;11798;51.528;7.240;2022-12-07T05:32:56;4.20;99.90
23259;DHT22;11798;51.528;7.240;2022-12-07T05:35:22;4.10;99.90
23259;DHT22;11798;51.528;7.240;2022-12-07T05:37:47;4.20;99.90
23259;DHT22;11798;51.528;7.240;2022-12-07T05:40:15;4.20;99.90
23259;DHT22;11798;51.528;7.240;2022-12-07T05:42:41;4.20;99.90
23259;DHT22;11798;51.528;7.240;2022-12-07T05:45:08;4.20;99.90
23259;DHT22;11798;51.528;7.240;2022-12-07T05:47:34;4.20;99.90
23259;DHT22;11798;51.528;7.240;2022-12-07T05:50:00;4.10;99.90
23259;DHT22;11798;51.528;7.240;2022-12-07T05:52:26;4.10;99.90
23259;DHT22;11798;51.528;7.240;2022-12-07T05:54:51;4.10;99.90
23259;DHT22;11798;51.528;7.240;2022-12-07T05:57:17;4.10;99.90
23259;DHT22;11798;51.528;7.240;2022-12-07T05:59:43;4.20;99.90
23259;DHT22;11798;51.528;7.240;2022-12-07T06:02:11;4.20;99.90
23259;DHT22;11798;51.528;7.240;2022-12-07T06:04:39;4.20;99.90
23259;DHT22;11798;51.528;7.240;2022-12-07T06:07:06;4.20;99.90
23259;DHT22;11798;51.528;7.240;2022-12-07T06:09:32;4.10;99.90
23259;DHT22;11798;51.528;7.240;2022-12-07T06:11:58;4.20;99.90
23259;DHT22;11798;51.528;7.240;2022-12-07T06:14:42;4.30;99.90
23259;DHT22;11798;51.528;7.240;2022-12-07T06:17:09;4.30;99.90
23259;DHT22;11798;51.528;7.240;2022-12-07T06:19:34;4.20;99.90
23259;DHT22;11798;51.528;7.240;2022-12-07T06:22:01;4.20;99.90
23259;DHT22;11798;51.528;7.240;2022-12-07T06:24:28;4.20;99.90
23259;DHT22;11798;51.528;7.240;2022-12-07T06:26:53;4.20;99.90
23259;DHT22;11798;51.528;7.240;2022-12-07T06:29:19;4.20;99.90
23259;DHT22;11798;51.528;7.240;2022-12-07T06:31:45;4.10;99.90
23259;DHT22;11798;51.528;7.240;2022-12-07T06:34:13;4.10;99.90
23259;DHT22;11798;51.528;7.240;2022-12-07T06:36:39;4.00;99.90
23259;DHT22;11798;51.528;7.240;2022-12-07T06:39:05;4.00;99.90
23259;DHT22;11798;51.528;7.240;2022-12-07T06:41:31;4.10;99.90
23259;DHT22;11798;51.528;7.240;2022-12-07T06:43:57;4.00;99.90
23259;DHT22;11798;51.528;7.240;2022-12-07T06:46:23;4.00;99.90
23259;DHT22;11798;51.528;7.240;2022-12-07T06:48:49;4.00;99.90
23259;DHT22;11798;51.528;7.240;2022-12-07T06:51:15;4.00;99.90
23259;DHT22;11798;51.528;7.240;2022-12-07T06:53:41;4.00;99.90
23259;DHT22;11798;51.528;7.240;2022-12-07T06:56:07;3.90;99.90
23259;DHT22;11798;51.528;7.240;2022-12-07T06:58:33;3.90;99.90
23259;DHT22;11798;51.528;7.240;2022-12-07T07:00:58;3.90;99.90
23259;DHT22;11798;51.528;7.240;2022-12-07T07:03:24;3.90;99.90
23259;DHT22;11798;51.528;7.240;2022-12-07T07:05:49;4.00;99.90
23259;DHT22;11798;51.528;7.240;2022-12-07T07:08:15;3.90;99.90
23259;DHT22;11798;51.528;7.240;2022-12-07T07:10:41;3.90;99.90
23259;DHT22;11798;51.528;7.240;2022-12-07T07:13:07;3.90;99.90
23259;DHT22;11798;51.528;7.240;2022-12-07T07:15:34;3.80;99.90
23259;DHT22;11798;51.528;7.240;2022-12-07T07:18:00;3.90;99.90
23259;DHT22;11798;51.528;7.240;2022-12-07T07:20:26;3.80;99.90
23259;DHT22;11798;51.528;7.240;2022-12-07T07:22:54;3.80;99.90
23259;DHT22;11798;51.528;7.240;2022-12-07T07:25:20;3.90;99.90
23259;DHT22;11798;51.528;7.240;2022-12-07T07:27:46;3.90;99.90
23259;DHT22;11798;51.528;7.240;2022-12-07T07:30:12;3.80;99.90
23259;DHT22;11798;51.528;7.240;2022-12-07T07:32:37;3.90;99.90
23259;DHT22;11798;51.528;7.240;2022-12-07T07:35:03;3.90;99.90
23259;DHT22;11798;51.528;7.240;2022-12-07T07:37:29;3.80;99.90
23259;DHT22;11798;51.528;7.240;2022-12-07T07:39:55;3.80;99.90
23259;DHT22;11798;51.528;7.240;2022-12-07T07:42:20;3.90;99.90
23259;DHT22;11798;51.528;7.240;2022-12-07T07:44:46;3.80;99.90
23259;DHT22;11798;51.528;7.240;2022-12-07T07:47:12;3.80;99.90
23259;DHT22;11798;51.528;7.240;2022-12-07T07:49:37;3.70;99.90
23259;DHT22;11798;51.528;7.240;2022-12-07T07:52:05;3.70;99.90
23259;DHT22;11798;51.528;7.240;2022-12-07T07:54:31;3.70;99.90
23259;DHT22;11798;51.528;7.240;2022-12-07T07:56:56;3.60;99.90
23259;DHT22;11798;51.528;7.240;2022-12-07T07:59:22;3.60;99.90
23259;DHT22;11798;51.528;7.240;2022-12-07T08:01:48;3.60;99.90
23259;DHT22;11798;51.528;7.240;2022-12-07T08:04:13;3.70;99.90
23259;DHT22;11798;51.528;7.240;2022-12-07T08:06:39;3.60;99.90
23259;DHT22;11798;51.528;7.240;2022-12-07T08:09:04;3.70;99.90
23259;DHT22;11798;51.528;7.240;2022-12-07T08:11:31;3.70;99.90
23259;DHT22;11798;51.528;7.240;2022-12-07T08:13:57;3.70;99.90
23259;DHT22;11798;51.528;7.240;2022-12-07T08:16:23;3.80;99.90
23259;DHT22;11798;51.528;7.240;2022-12-07T08:18:48;3.70;99.90
23259;DHT22;11798;51.528;7.240;2022-12-07T08:21:15;3.80;99.90
23259;DHT22;11798;51.528;7.240;2022-12-07T08:23:41;3.80;99.90
23259;DHT22;11798;51.528;7.240;2022-12-07T08:26:10;3.90;99.90
23259;DHT22;11798;51.528;7.240;2022-12-07T08:28:36;4.00;99.90
23259;DHT22;11798;51.528;7.240;2022-12-07T08:31:04;4.00;99.90
23259;DHT22;11798;51.528;7.240;2022-12-07T08:33:30;4.10;99.90
23259;DHT22;11798;51.528;7.240;2022-12-07T08:36:01;4.10;99.90
23259;DHT22;11798;51.528;7.240;2022-12-07T08:38:26;4.20;99.90
23259;DHT22;11798;51.528;7.240;2022-12-07T08:40:56;4.30;99.90
23259;DHT22;11798;51.528;7.240;2022-12-07T08:43:22;4.20;99.90
23259;DHT22;11798;51.528;7.240;2022-12-07T08:45:57;4.30;99.90
23259;DHT22;11798;51.528;7.240;2022-12-07T08:48:27;4.30;99.90
23259;DHT22;11798;51.528;7.240;2022-12-07T08:50:53;4.40;99.90
23259;DHT22;11798;51.528;7.240;2022-12-07T08:53:18;4.40;99.90
23259;DHT22;11798;51.528;7.240;2022-12-07T08:55:45;4.40;99.90
23259;DHT22;11798;51.528;7.240;2022-12-07T08:58:12;4.30;99.90
23259;DHT22;11798;51.528;7.240;2022-12-07T09:00:37;4.40;99.90
23259;DHT22;11798;51.528;7.240;2022-12-07T09:03:03;4.50;99.90
23259;DHT22;11798;51.528;7.240;2022-12-07T09:05:29;4.60;99.90
23259;DHT22;11798;51.528;7.240;2022-12-07T09:07:57;4.50;99.90
23259;DHT22;11798;51.528;7.240;2022-12-07T09:10:24;4.60;99.90
23259;DHT22;11798;51.528;7.240;2022-12-07T09:12:49;4.70;99.90
23259;DHT22;11798;51.528;7.240;2022-12-07T09:15:15;4.70;99.90
23259;DHT22;11798;51.528;7.240;2022-12-07T09:17:41;4.80;99.90
23259;DHT22;11798;51.528;7.240;2022-12-07T09:20:07;4.90;99.90
23259;DHT22;11798;51.528;7.240;2022-12-07T09:22:33;4.90;99.90
23259;DHT22;11798;51.528;7.240;2022-12-07T09:24:59;4.90;99.90
23259;DHT22;11798;51.528;7.240;2022-12-07T09:27:25;4.90;99.90
23259;DHT22;11798;51.528;7.240;2022-12-07T09:29:51;4.80;99.90
23259;DHT22;11798;51.528;7.240;2022-12-07T09:32:17;4.90;99.90
23259;DHT22;11798;51.528;7.240;2022-12-07T09:34:42;4.90;99.90
23259;DHT22;11798;51.528;7.240;2022-12-07T09:37:08;4.90;99.90
23259;DHT22;11798;51.528;7.240;2022-12-07T09:39:34;4.90;99.90
23259;DHT22;11798;51.528;7.240;2022-12-07T09:42:03;4.90;99.90
23259;DHT22;11798;51.528;7.240;2022-12-07T09:44:29;4.90;99.90
23259;DHT22;11798;51.528;7.240;2022-12-07T09:46:55;4.90;99.90
23259;DHT22;11798;51.528;7.240;2022-12-07T09:49:23;4.90;99.90
23259;DHT22;11798;51.528;7.240;2022-12-07T09:52:20;5.00;99.90
23259;DHT22;11798;51.528;7.240;2022-12-07T09:54:50;4.90;99.90
23259;DHT22;11798;51.528;7.240;2022-12-07T09:57:27;4.90;99.90
23259;DHT22;11798;51.528;7.240;2022-12-07T09:59:55;4.90;99.90
23259;DHT22;11798;51.528;7.240;2022-12-07T10:02:37;4.90;99.90
23259;DHT22;11798;51.528;7.240;2022-12-07T10:05:06;4.90;99.90
23259;DHT22;11798;51.528;7.240;2022-12-07T10:07:32;4.90;99.90
23259;DHT22;11798;51.528;7.240;2022-12-07T10:09:58;4.90;99.90
23259;DHT22;11798;51.528;7.240;2022-12-07T10:12:23;4.90;99.90
23259;DHT22;11798;51.528;7.240;2022-12-07T10:15:03;5.00;99.90
23259;DHT22;11798;51.528;7.240;2022-12-07T10:17:37;5.10;99.90
23259;DHT22;11798;51.528;7.240;2022-12-07T10:22:37;5.20;99.90
23259;DHT22;11798;51.528;7.240;2022-12-07T10:25:18;5.10;99.90
23259;DHT22;11798;51.528;7.240;2022-12-07T10:28:00;5.10;99.90
23259;DHT22;11798;51.528;7.240;2022-12-07T10:30:27;5.20;99.90
23259;DHT22;11798;51.528;7.240;2022-12-07T10:32:53;5.20;99.90
23259;DHT22;11798;51.528;7.240;2022-12-07T10:37:48;5.40;99.90
23259;DHT22;11798;51.528;7.240;2022-12-07T10:40:33;5.40;99.90
23259;DHT22;11798;51.528;7.240;2022-12-07T10:46:13;5.40;99.90
23259;DHT22;11798;51.528;7.240;2022-12-07T10:51:48;5.40;99.90
23259;DHT22;11798;51.528;7.240;2022-12-07T10:54:28;5.40;99.90
23259;DHT22;11798;51.528;7.240;2022-12-07T11:00:15;5.60;99.90
23259;DHT22;11798;51.528;7.240;2022-12-07T11:05:27;5.70;99.90
23259;DHT22;11798;51.528;7.240;2022-12-07T11:08:05;5.70;99.90
23259;DHT22;11798;51.528;7.240;2022-12-07T11:10:55;5.70;99.90
23259;DHT22;11798;51.528;7.240;2022-12-07T11:22:13;5.70;99.90
23259;DHT22;11798;51.528;7.240;2022-12-07T11:25:02;5.70;99.90
23259;DHT22;11798;51.528;7.240;2022-12-07T11:27:53;5.60;99.90
23259;DHT22;11798;51.528;7.240;2022-12-07T11:30:45;5.70;99.90
23259;DHT22;11798;51.528;7.240;2022-12-07T11:33:55;5.80;99.90
23259;DHT22;11798;51.528;7.240;2022-12-07T11:36:40;5.80;99.90
23259;DHT22;11798;51.528;7.240;2022-12-07T11:39:20;5.90;99.90
23259;DHT22;11798;51.528;7.240;2022-12-07T11:41:52;6.00;99.90
23259;DHT22;11798;51.528;7.240;2022-12-07T11:46:56;5.90;99.90
23259;DHT22;11798;51.528;7.240;2022-12-07T11:49:45;5.90;99.90
23259;DHT22;11798;51.528;7.240;2022-12-07T11:54:52;5.90;99.90
23259;DHT22;11798;51.528;7.240;2022-12-07T11:57:36;6.00;99.90
23259;DHT22;11798;51.528;7.240;2022-12-07T12:00:13;5.90;99.90
23259;DHT22;11798;51.528;7.240;2022-12-07T12:02:55;5.90;99.90
23259;DHT22;11798;51.528;7.240;2022-12-07T12:05:25;5.90;99.90
23259;DHT22;11798;51.528;7.240;2022-12-07T12:11:00;6.00;99.90
23259;DHT22;11798;51.528;7.240;2022-12-07T12:21:41;6.00;99.90
23259;DHT22;11798;51.528;7.240;2022-12-07T12:24:18;6.00;99.90
23259;DHT22;11798;51.528;7.240;2022-12-07T12:27:04;6.10;99.90
23259;DHT22;11798;51.528;7.240;2022-12-07T12:29:39;6.30;99.90
23259;DHT22;11798;51.528;7.240;2022-12-07T12:32:17;6.30;99.90
23259;DHT22;11798;51.528;7.240;2022-12-07T12:42:48;6.50;99.90
23259;DHT22;11798;51.528;7.240;2022-12-07T12:45:26;6.50;99.90
23259;DHT22;11798;51.528;7.240;2022-12-07T12:48:03;6.50;99.90
23259;DHT22;11798;51.528;7.240;2022-12-07T12:50:36;6.50;99.90
23259;DHT22;11798;51.528;7.240;2022-12-07T12:58:29;6.50;99.90
23259;DHT22;11798;51.528;7.240;2022-12-07T13:03:58;6.40;99.90
23259;DHT22;11798;51.528;7.240;2022-12-07T13:08:50;6.50;99.90
23259;DHT22;11798;51.528;7.240;2022-12-07T13:11:32;6.40;99.90
23259;DHT22;11798;51.528;7.240;2022-12-07T13:17:02;6.50;99.90
23259;DHT22;11798;51.528;7.240;2022-12-07T13:27:29;6.40;99.90
23259;DHT22;11798;51.528;7.240;2022-12-07T13:29:57;6.40;99.90
23259;DHT22;11798;51.528;7.240;2022-12-07T13:32:27;6.40;99.90
23259;DHT22;11798;51.528;7.240;2022-12-07T13:34:55;6.40;99.90
23259;DHT22;11798;51.528;7.240;2022-12-07T13:37:25;6.30;99.90
23259;DHT22;11798;51.528;7.240;2022-12-07T13:40:00;6.30;99.90
23259;DHT22;11798;51.528;7.240;2022-12-07T13:42:30;6.30;99.90
23259;DHT22;11798;51.528;7.240;2022-12-07T13:44:58;6.40;99.90
23259;DHT22;11798;51.528;7.240;2022-12-07T13:47:44;6.40;99.90
23259;DHT22;11798;51.528;7.240;2022-12-07T13:50:27;6.40;99.90
23259;DHT22;11798;51.528;7.240;2022-12-07T13:52:58;6.40;99.90
23259;DHT22;11798;51.528;7.240;2022-12-07T13:55:24;6.40;99.90
23259;DHT22;11798;51.528;7.240;2022-12-07T13:57:52;6.40;99.90
23259;DHT22;11798;51.528;7.240;2022-12-07T14:00:21;6.40;99.90
23259;DHT22;11798;51.528;7.240;2022-12-07T14:05:45;6.10;99.90
23259;DHT22;11798;51.528;7.240;2022-12-07T14:11:01;5.90;99.90
23259;DHT22;11798;51.528;7.240;2022-12-07T14:13:33;5.80;99.90
23259;DHT22;11798;51.528;7.240;2022-12-07T14:16:01;5.90;99.90
23259;DHT22;11798;51.528;7.240;2022-12-07T14:18:38;6.00;99.90
23259;DHT22;11798;51.528;7.240;2022-12-07T14:23:37;5.80;99.90
23259;DHT22;11798;51.528;7.240;2022-12-07T14:26:19;5.70;99.90
23259;DHT22;11798;51.528;7.240;2022-12-07T14:28:46;5.70;99.90
23259;DHT22;11798;51.528;7.240;2022-12-07T14:31:18;5.70;99.90
23259;DHT22;11798;51.528;7.240;2022-12-07T14:33:46;5.70;99.90
23259;DHT22;11798;51.528;7.240;2022-12-07T14:36:13;5.70;99.90
23259;DHT22;11798;51.528;7.240;2022-12-07T14:38:39;5.70;99.90
23259;DHT22;11798;51.528;7.240;2022-12-07T14:41:12;5.60;99.90
23259;DHT22;11798;51.528;7.240;2022-12-07T14:43:58;5.60;99.90
23259;DHT22;11798;51.528;7.240;2022-12-07T14:46:24;5.50;99.90
23259;DHT22;11798;51.528;7.240;2022-12-07T14:48:50;5.50;99.90
23259;DHT22;11798;51.528;7.240;2022-12-07T14:51:16;5.30;99.90
23259;DHT22;11798;51.528;7.240;2022-12-07T14:53:48;5.30;99.90
23259;DHT22;11798;51.528;7.240;2022-12-07T14:56:15;5.10;99.90
23259;DHT22;11798;51.528;7.240;2022-12-07T14:58:41;4.90;99.90
23259;DHT22;11798;51.528;7.240;2022-12-07T15:01:06;4.90;99.90
23259;DHT22;11798;51.528;7.240;2022-12-07T15:03:32;4.90;99.90
23259;DHT22;11798;51.528;7.240;2022-12-07T15:06:00;4.90;99.90
23259;DHT22;11798;51.528;7.240;2022-12-07T15:08:26;4.80;99.90
23259;DHT22;11798;51.528;7.240;2022-12-07T15:10:52;4.70;99.90
23259;DHT22;11798;51.528;7.240;2022-12-07T15:13:17;4.70;99.90
23259;DHT22;11798;51.528;7.240;2022-12-07T15:16:02;4.70;99.90
23259;DHT22;11798;51.528;7.240;2022-12-07T15:18:27;4.70;99.90
23259;DHT22;11798;51.528;7.240;2022-12-07T15:20:53;4.70;99.90
23259;DHT22;11798;51.528;7.240;2022-12-07T15:23:19;4.60;99.90
23259;DHT22;11798;51.528;7.240;2022-12-07T15:25:47;4.60;99.90
23259;DHT22;11798;51.528;7.240;2022-12-07T15:28:13;4.70;99.90
23259;DHT22;11798;51.528;7.240;2022-12-07T15:30:40;4.60;99.90
23259;DHT22;11798;51.528;7.240;2022-12-07T15:33:08;4.60;99.90
23259;DHT22;11798;51.528;7.240;2022-12-07T15:35:33;4.60;99.90
23259;DHT22;11798;51.528;7.240;2022-12-07T15:38:03;4.60;99.90
23259;DHT22;11798;51.528;7.240;2022-12-07T15:40:29;4.50;99.90
23259;DHT22;11798;51.528;7.240;2022-12-07T15:42:54;4.60;99.90
23259;DHT22;11798;51.528;7.240;2022-12-07T15:45:20;4.60;99.90
23259;DHT22;11798;51.528;7.240;2022-12-07T15:47:45;4.60;99.90
23259;DHT22;11798;51.528;7.240;2022-12-07T15:50:14;4.60;99.90
23259;DHT22;11798;51.528;7.240;2022-12-07T15:52:40;4.60;99.90
23259;DHT22;11798;51.528;7.240;2022-12-07T15:55:06;4.60;99.90
23259;DHT22;11798;51.528;7.240;2022-12-07T15:57:34;4.60;99.90
23259;DHT22;11798;51.528;7.240;2022-12-07T16:00:00;4.60;99.90
23259;DHT22;11798;51.528;7.240;2022-12-07T16:02:26;4.60;99.90
23259;DHT22;11798;51.528;7.240;2022-12-07T16:04:52;4.60;99.90
23259;DHT22;11798;51.528;7.240;2022-12-07T16:07:18;4.60;99.90
23259;DHT22;11798;51.528;7.240;2022-12-07T16:09:45;4.60;99.90
23259;DHT22;11798;51.528;7.240;2022-12-07T16:12:12;4.60;99.90
23259;DHT22;11798;51.528;7.240;2022-12-07T16:14:39;4.60;99.90
23259;DHT22;11798;51.528;7.240;2022-12-07T16:17:06;4.60;99.90
23259;DHT22;11798;51.528;7.240;2022-12-07T16:19:34;4.70;99.90
23259;DHT22;11798;51.528;7.240;2022-12-07T16:22:00;4.70;99.90
23259;DHT22;11798;51.528;7.240;2022-12-07T16:24:26;4.60;99.90
23259;DHT22;11798;51.528;7.240;2022-12-07T16:26:52;4.60;99.90
23259;DHT22;11798;51.528;7.240;2022-12-07T16:29:19;4.70;99.90
23259;DHT22;11798;51.528;7.240;2022-12-07T16:31:46;4.70;99.90
23259;DHT22;11798;51.528;7.240;2022-12-07T16:34:12;4.70;99.90
23259;DHT22;11798;51.528;7.240;2022-12-07T16:36:38;4.70;99.90
23259;DHT22;11798;51.528;7.240;2022-12-07T16:39:04;4.70;99.90
23259;DHT22;11798;51.528;7.240;2022-12-07T16:41:30;4.70;99.90
23259;DHT22;11798;51.528;7.240;2022-12-07T16:43:56;4.70;99.90
23259;DHT22;11798;51.528;7.240;2022-12-07T16:46:22;4.70;99.90
23259;DHT22;11798;51.528;7.240;2022-12-07T16:48:47;4.80;99.90
23259;DHT22;11798;51.528;7.240;2022-12-07T16:51:14;4.80;99.90
23259;DHT22;11798;51.528;7.240;2022-12-07T16:53:41;4.70;99.90
23259;DHT22;11798;51.528;7.240;2022-12-07T16:56:14;4.80;99.90
23259;DHT22;11798;51.528;7.240;2022-12-07T16:58:42;4.80;99.90
23259;DHT22;11798;51.528;7.240;2022-12-07T17:01:21;4.80;99.90
23259;DHT22;11798;51.528;7.240;2022-12-07T17:03:48;4.80;99.90
23259;DHT22;11798;51.528;7.240;2022-12-07T17:06:19;4.80;99.90
23259;DHT22;11798;51.528;7.240;2022-12-07T17:08:46;4.80;99.90
23259;DHT22;11798;51.528;7.240;2022-12-07T17:11:14;4.80;99.90
23259;DHT22;11798;51.528;7.240;2022-12-07T17:13:40;4.80;99.90
23259;DHT22;11798;51.528;7.240;2022-12-07T17:16:25;4.80;99.90
23259;DHT22;11798;51.528;7.240;2022-12-07T17:18:51;4.80;99.90
23259;DHT22;11798;51.528;7.240;2022-12-07T17:21:16;4.80;99.90
23259;DHT22;11798;51.528;7.240;2022-12-07T17:23:42;4.80;99.90
23259;DHT22;11798;51.528;7.240;2022-12-07T17:26:10;4.80;99.90
23259;DHT22;11798;51.528;7.240;2022-12-07T17:28:36;4.80;99.90
23259;DHT22;11798;51.528;7.240;2022-12-07T17:31:05;4.80;99.90
23259;DHT22;11798;51.528;7.240;2022-12-07T17:33:32;4.80;99.90
23259;DHT22;11798;51.528;7.240;2022-12-07T17:35:58;4.80;99.90
23259;DHT22;11798;51.528;7.240;2022-12-07T17:38:23;4.80;99.90
23259;DHT22;11798;51.528;7.240;2022-12-07T17:40:52;4.80;99.90
23259;DHT22;11798;51.528;7.240;2022-12-07T17:43:18;4.60;99.90
23259;DHT22;11798;51.528;7.240;2022-12-07T17:45:43;4.40;99.90
23259;DHT22;11798;51.528;7.240;2022-12-07T17:48:09;4.40;99.90
23259;DHT22;11798;51.528;7.240;2022-12-07T17:50:34;4.30;99.90
23259;DHT22;11798;51.528;7.240;2022-12-07T17:53:18;4.30;99.90